createdAt,value
2018-08-17T00:00:56.316Z,86.52
2018-08-17T00:03:25.401Z,86.44
2018-08-17T00:05:54.402Z,86.88
2018-08-17T00:08:23.272Z,87.24
2018-08-17T00:10:52.167Z,87.35
2018-08-17T00:13:23.164Z,86.87
2018-08-17T00:15:51.931Z,87.12
2018-08-17T00:18:21.137Z,86.93
2018-08-17T00:20:50.056Z,87.30
2018-08-17T00:23:19.119Z,86.81
2018-08-17T00:25:47.912Z,87.20
2018-08-17T00:28:16.836Z,86.93
2018-08-17T00:30:45.764Z,87.25
2018-08-17T00:33:14.841Z,86.94
2018-08-17T00:35:44.807Z,86.93
2018-08-17T00:38:13.757Z,86.97
2018-08-17T00:40:42.632Z,86.67
2018-08-17T00:43:11.630Z,86.82
2018-08-17T00:45:40.433Z,86.93
2018-08-17T00:48:09.539Z,86.53
2018-08-17T00:50:38.493Z,86.94
2018-08-17T00:53:07.569Z,87.07
2018-08-17T00:55:36.532Z,86.79
2018-08-17T00:58:05.486Z,86.90
2018-08-17T01:00:34.254Z,87.18
2018-08-17T01:03:03.099Z,86.59
2018-08-17T01:05:31.830Z,86.94
2018-08-17T01:08:00.625Z,86.88
2018-08-17T01:10:29.447Z,86.46
2018-08-17T01:12:58.351Z,86.42
2018-08-17T01:15:27.161Z,86.36
2018-08-17T01:17:56.028Z,86.56
2018-08-17T01:20:24.841Z,86.31
2018-08-17T01:22:53.743Z,86.51
2018-08-17T01:25:22.632Z,86.94
2018-08-17T01:27:51.428Z,86.60
2018-08-17T01:30:20.129Z,86.79
2018-08-17T01:32:48.876Z,86.48
2018-08-17T01:35:17.579Z,86.80
2018-08-17T01:37:46.372Z,86.81
2018-08-17T01:40:15.047Z,86.07
2018-08-17T01:42:43.841Z,86.19
2018-08-17T01:45:13.057Z,86.36
2018-08-17T01:47:41.878Z,86.19
2018-08-17T01:50:10.766Z,86.00
2018-08-17T01:52:39.586Z,87.08
2018-08-17T01:55:10.004Z,86.85
2018-08-17T01:57:38.707Z,86.57
2018-08-17T02:00:09.469Z,86.59
2018-08-17T02:02:39.690Z,86.34
2018-08-17T02:05:09.158Z,86.24
2018-08-17T02:07:37.997Z,85.71
2018-08-17T02:10:08.990Z,85.63
2018-08-17T02:12:38.282Z,85.22
2018-08-17T02:15:07.192Z,85.21
2018-08-17T02:17:36.018Z,85.08
2018-08-17T02:20:05.150Z,84.33
2018-08-17T02:22:33.862Z,84.04
2018-08-17T02:25:02.756Z,83.79
2018-08-17T02:27:31.554Z,84.01
2018-08-17T02:30:00.404Z,84.11
2018-08-17T02:32:29.048Z,83.84
2018-08-17T02:34:57.824Z,83.49
2018-08-17T02:37:26.551Z,84.12
2018-08-17T02:39:55.365Z,84.25
2018-08-17T02:42:24.184Z,84.56
2018-08-17T02:44:53.035Z,84.18
2018-08-17T02:47:21.835Z,84.69
2018-08-17T02:49:50.708Z,84.33
2018-08-17T02:52:20.340Z,84.83
2018-08-17T02:54:49.238Z,85.30
2018-08-17T02:57:18.146Z,84.94
2018-08-17T02:59:46.939Z,85.11
2018-08-17T03:02:15.750Z,85.02
2018-08-17T03:04:44.529Z,84.83
2018-08-17T03:07:13.286Z,84.59
2018-08-17T03:09:42.113Z,84.32
2018-08-17T03:12:10.882Z,84.80
2018-08-17T03:14:39.703Z,84.53
2018-08-17T03:17:08.471Z,84.55
2018-08-17T03:19:37.173Z,83.63
2018-08-17T03:22:05.978Z,83.63
2018-08-17T03:24:34.754Z,83.56
2018-08-17T03:27:03.527Z,83.10
2018-08-17T03:29:32.289Z,83.16
2018-08-17T03:32:01.088Z,82.65
2018-08-17T03:34:29.904Z,82.66
2018-08-17T03:36:58.794Z,82.87
2018-08-17T03:39:27.464Z,83.05
2018-08-17T03:41:56.294Z,82.72
2018-08-17T03:44:24.957Z,82.77
2018-08-17T03:46:53.798Z,83.37
2018-08-17T03:49:22.489Z,82.82
2018-08-17T03:51:51.275Z,82.84
2018-08-17T03:54:20.170Z,82.97
2018-08-17T03:56:49.033Z,82.33
2018-08-17T03:59:17.939Z,82.41
2018-08-17T04:01:46.799Z,82.63
2018-08-17T04:04:15.594Z,82.65
2018-08-17T04:06:44.379Z,82.32
2018-08-17T04:09:13.214Z,82.58
2018-08-17T04:11:42.034Z,82.26
2018-08-17T04:14:10.972Z,82.38
2018-08-17T04:16:39.828Z,82.37
2018-08-17T04:19:08.598Z,82.41
2018-08-17T04:21:37.507Z,82.44
2018-08-17T04:24:06.333Z,82.13
2018-08-17T04:26:35.170Z,82.04
2018-08-17T04:29:03.906Z,81.89
2018-08-17T04:31:32.734Z,81.79
2018-08-17T04:34:01.419Z,82.17
2018-08-17T04:36:30.251Z,82.19
2018-08-17T04:38:59.021Z,82.39
2018-08-17T04:41:27.876Z,82.55
2018-08-17T04:43:56.579Z,83.55
2018-08-17T04:46:25.378Z,84.81
2018-08-17T04:48:54.154Z,85.39
2018-08-17T04:51:22.921Z,85.80
2018-08-17T04:53:51.782Z,86.03
2018-08-17T04:56:20.674Z,86.01
2018-08-17T04:58:49.568Z,86.45
2018-08-17T05:01:18.470Z,86.52
2018-08-17T05:03:47.774Z,86.76
2018-08-17T05:06:16.588Z,87.42
2018-08-17T05:08:45.702Z,87.64
2018-08-17T05:11:15.069Z,88.40
2018-08-17T05:13:44.482Z,88.58
2018-08-17T05:16:13.382Z,88.47
2018-08-17T05:18:42.877Z,88.81
2018-08-17T05:21:11.717Z,88.35
2018-08-17T05:23:40.441Z,88.04
2018-08-17T05:26:09.653Z,88.03
2018-08-17T05:28:38.410Z,87.91
2018-08-17T05:31:07.608Z,88.26
2018-08-17T05:33:36.415Z,88.19
2018-08-17T05:36:05.349Z,88.84
2018-08-17T05:38:34.126Z,88.45
2018-08-17T05:41:03.014Z,88.83
2018-08-17T05:43:31.845Z,89.14
2018-08-17T05:46:00.628Z,89.36
2018-08-17T05:48:29.525Z,89.28
2018-08-17T05:50:58.321Z,89.08
2018-08-17T05:53:27.289Z,88.97
2018-08-17T05:55:56.179Z,89.65
2018-08-17T05:58:25.132Z,89.44
2018-08-17T06:00:54.048Z,89.35
2018-08-17T06:03:23.019Z,89.55
2018-08-17T06:05:51.876Z,90.35
2018-08-17T06:08:20.777Z,90.12
2018-08-17T06:10:49.869Z,90.12
2018-08-17T06:13:18.995Z,90.15
2018-08-17T06:15:47.949Z,90.33
2018-08-17T06:18:16.911Z,90.06
2018-08-17T06:20:45.771Z,90.16
2018-08-17T06:23:15.518Z,90.39
2018-08-17T06:25:44.370Z,90.32
2018-08-17T06:28:13.272Z,90.82
2018-08-17T06:30:42.198Z,90.31
2018-08-17T06:33:11.041Z,90.66
2018-08-17T06:35:39.875Z,91.29
2018-08-17T06:38:08.680Z,91.23
2018-08-17T06:40:37.462Z,91.23
2018-08-17T06:43:06.370Z,90.88
2018-08-17T06:45:35.151Z,91.22
2018-08-17T06:48:04.022Z,91.54
2018-08-17T06:50:32.906Z,91.55
2018-08-17T06:53:01.671Z,91.18
2018-08-17T06:55:30.495Z,91.40
2018-08-17T06:57:59.330Z,91.62
2018-08-17T07:00:29.155Z,91.81
2018-08-17T07:02:59.055Z,91.29
2018-08-17T07:05:27.905Z,91.21
2018-08-17T07:07:57.411Z,92.03
2018-08-17T07:10:27.243Z,91.55
2018-08-17T07:12:56.110Z,91.37
2018-08-17T07:15:24.958Z,91.64
2018-08-17T07:17:53.829Z,91.69
2018-08-17T07:20:24.671Z,91.85
2018-08-17T07:22:53.631Z,91.76
2018-08-17T07:25:22.651Z,91.34
2018-08-17T07:27:51.692Z,91.22
2018-08-17T07:30:21.483Z,91.71
2018-08-17T07:32:50.360Z,91.51
2018-08-17T07:35:19.325Z,91.72
2018-08-17T07:37:48.200Z,91.79
2018-08-17T07:40:17.070Z,92.06
2018-08-17T07:42:45.958Z,91.67
2018-08-17T07:45:14.766Z,91.94
2018-08-17T07:47:43.664Z,91.81
2018-08-17T07:50:18.763Z,92.08
2018-08-17T07:52:47.698Z,92.23
2018-08-17T07:55:16.612Z,91.80
2018-08-17T07:57:45.383Z,91.91
2018-08-17T08:00:16.159Z,92.69
2018-08-17T08:02:44.961Z,92.39
2018-08-17T08:05:13.792Z,92.61
2018-08-17T08:07:42.947Z,92.13
2018-08-17T08:10:13.106Z,92.45
2018-08-17T08:12:45.932Z,92.37
2018-08-17T08:15:14.692Z,92.37
2018-08-17T08:17:43.550Z,92.09
2018-08-17T08:20:25.323Z,92.28
2018-08-17T08:23:05.070Z,92.15
2018-08-17T08:25:33.890Z,92.62
2018-08-17T08:28:02.620Z,92.51
2018-08-17T08:30:32.565Z,92.68
2018-08-17T08:33:01.726Z,91.78
2018-08-17T08:35:31.006Z,91.29
2018-08-17T08:38:00.071Z,91.39
2018-08-17T08:40:29.323Z,90.95
2018-08-17T08:42:58.262Z,91.24
2018-08-17T08:45:27.113Z,90.88
2018-08-17T08:47:56.292Z,90.41
2018-08-17T08:50:27.511Z,90.53
2018-08-17T08:52:56.530Z,89.55
2018-08-17T08:55:25.454Z,87.77
2018-08-17T08:57:54.474Z,88.32
2018-08-17T09:00:25.027Z,87.64
2018-08-17T09:02:53.782Z,87.43
2018-08-17T09:05:22.899Z,87.07
2018-08-17T09:07:52.003Z,86.74
2018-08-17T09:10:20.798Z,84.99
2018-08-17T09:12:49.822Z,84.41
2018-08-17T09:15:18.571Z,83.49
2018-08-17T09:17:47.412Z,80.50
2018-08-17T09:20:17.178Z,78.99
2018-08-17T09:22:46.054Z,79.78
2018-08-17T09:25:15.037Z,78.62
2018-08-17T09:27:43.824Z,77.88
2018-08-17T09:30:14.188Z,78.59
2018-08-17T09:32:43.255Z,78.50
2018-08-17T09:35:13.518Z,77.87
2018-08-17T09:37:42.598Z,78.27
2018-08-17T09:40:13.542Z,78.61
2018-08-17T09:42:42.398Z,78.73
2018-08-17T09:45:12.984Z,78.25
2018-08-17T09:47:42.158Z,77.88
2018-08-17T09:50:14.567Z,77.28
2018-08-17T09:52:43.878Z,77.55
2018-08-17T09:55:13.387Z,78.32
2018-08-17T09:57:43.254Z,78.90
2018-08-17T10:00:13.997Z,79.04
2018-08-17T10:02:48.438Z,76.43
2018-08-17T10:05:31.574Z,77.58
2018-08-17T10:08:05.649Z,77.88
2018-08-17T10:10:35.693Z,78.09
2018-08-17T10:13:04.877Z,77.87
2018-08-17T10:15:35.662Z,77.74
2018-08-17T10:18:16.310Z,77.73
2018-08-17T10:20:58.649Z,78.16
2018-08-17T10:23:52.773Z,77.81
2018-08-17T10:26:24.809Z,76.61
2018-08-17T10:31:27.839Z,73.32
2018-08-17T10:33:57.356Z,67.71
2018-08-17T10:36:26.949Z,65.62
2018-08-17T10:38:56.107Z,66.58
2018-08-17T10:41:25.103Z,66.57
2018-08-17T10:43:53.927Z,64.91
2018-08-17T10:46:22.655Z,66.52
2018-08-17T10:48:51.708Z,64.95
2018-08-17T10:51:22.680Z,65.48
2018-08-17T10:53:51.539Z,68.13
2018-08-17T10:56:20.794Z,68.50
2018-08-17T10:58:49.698Z,72.98
2018-08-17T11:01:19.713Z,75.75
2018-08-17T11:03:48.508Z,77.32
2018-08-17T11:06:17.989Z,78.42
2018-08-17T11:08:46.793Z,77.25
2018-08-17T11:11:17.810Z,73.45
2018-08-17T11:13:46.634Z,71.98
2018-08-17T11:16:15.555Z,72.52
2018-08-17T11:18:44.786Z,67.62
2018-08-17T11:21:14.974Z,66.10
2018-08-17T11:23:43.803Z,66.18
2018-08-17T11:26:12.827Z,67.82
2018-08-17T11:28:41.862Z,69.11
2018-08-17T11:31:10.938Z,68.57
2018-08-17T11:33:40.115Z,70.02
2018-08-17T11:36:08.946Z,70.35
2018-08-17T11:38:37.923Z,70.48
2018-08-17T11:41:10.946Z,69.17
2018-08-17T11:43:39.677Z,67.68
2018-08-17T11:46:08.725Z,64.31
2018-08-17T11:48:38.404Z,64.43
2018-08-17T11:51:07.464Z,64.58
2018-08-17T11:53:36.239Z,63.93
2018-08-17T11:56:05.117Z,66.23
2018-08-17T11:58:33.943Z,68.19
2018-08-17T12:01:06.974Z,68.18
2018-08-17T12:03:35.797Z,70.09
2018-08-17T12:06:04.706Z,72.41
2018-08-17T12:08:33.615Z,72.66
2018-08-17T12:11:06.587Z,71.72
2018-08-17T12:13:38.559Z,70.09
2018-08-17T12:16:11.235Z,68.39
2018-08-17T12:18:40.181Z,68.83
2018-08-17T12:21:09.100Z,68.62
2018-08-17T12:23:38.085Z,66.62
2018-08-17T12:26:07.087Z,65.67
2018-08-17T12:28:36.179Z,65.18
2018-08-17T12:31:06.475Z,62.49
2018-08-17T12:33:35.313Z,62.26
2018-08-17T12:36:04.477Z,63.26
2018-08-17T12:38:33.459Z,62.68
2018-08-17T12:41:02.253Z,62.88
2018-08-17T12:43:36.839Z,65.25
2018-08-17T12:46:05.735Z,64.41
2018-08-17T12:48:34.630Z,64.65
2018-08-17T12:51:03.686Z,61.86
2018-08-17T12:53:32.778Z,58.70
2018-08-17T12:56:01.632Z,57.92
2018-08-17T12:58:30.579Z,56.90
2018-08-17T13:00:59.402Z,56.76
2018-08-17T13:03:28.160Z,50.90
2018-08-17T13:05:57.006Z,51.78
2018-08-17T13:08:29.504Z,51.43
2018-08-17T13:10:59.827Z,52.48
2018-08-17T13:13:28.752Z,52.50
2018-08-17T13:16:02.957Z,54.09
2018-08-17T13:18:41.795Z,54.13
2018-08-17T13:21:10.587Z,54.93
2018-08-17T13:23:39.774Z,54.61
2018-08-17T13:26:08.670Z,49.42
2018-08-17T13:28:37.583Z,48.27
2018-08-17T13:31:07.391Z,49.22
2018-08-17T13:33:36.218Z,48.62
2018-08-17T13:36:05.200Z,48.74
2018-08-17T13:38:34.131Z,46.80
2018-08-17T13:41:02.931Z,43.78
2018-08-17T13:43:32.868Z,39.57
2018-08-17T13:46:01.761Z,39.93
2018-08-17T13:48:30.663Z,44.34
2018-08-17T13:50:59.589Z,45.80
2018-08-17T13:53:29.526Z,38.41
2018-08-17T13:55:58.472Z,35.86
2018-08-17T13:58:27.306Z,29.36
2018-08-17T14:00:56.058Z,28.33
2018-08-17T14:03:24.929Z,28.21
2018-08-17T14:05:53.665Z,27.50
2018-08-17T14:08:22.614Z,29.42
2018-08-17T14:10:51.458Z,27.88
2018-08-17T14:13:20.443Z,25.26
2018-08-17T14:15:49.326Z,27.05
2018-08-17T14:18:18.141Z,25.54
2018-08-17T14:20:46.968Z,24.00
2018-08-17T14:23:15.842Z,25.36
2018-08-17T14:25:44.614Z,25.55
2018-08-17T14:28:13.419Z,23.27
2018-08-17T14:30:42.282Z,23.67
2018-08-17T14:33:11.222Z,21.06
2018-08-17T14:35:40.031Z,24.69
2018-08-17T14:38:08.947Z,28.37
2018-08-17T14:40:37.776Z,30.98
2018-08-17T14:43:10.078Z,29.02
2018-08-17T14:45:38.934Z,28.43
2018-08-17T14:48:07.850Z,24.01
2018-08-17T14:50:36.680Z,24.29
2018-08-17T14:53:06.595Z,21.47
2018-08-17T14:55:35.390Z,18.55
2018-08-17T14:58:04.192Z,20.72
2018-08-17T15:00:33.747Z,20.06
2018-08-17T15:03:04.672Z,18.53
2018-08-17T15:05:33.429Z,17.68
2018-08-17T15:08:02.192Z,19.06
2018-08-17T15:10:31.043Z,19.47
2018-08-17T15:13:01.055Z,17.20
2018-08-17T15:15:29.956Z,20.59
2018-08-17T15:17:59.728Z,16.66
2018-08-17T15:20:28.548Z,17.83
2018-08-17T15:22:58.406Z,20.95
2018-08-17T15:25:27.328Z,17.17
2018-08-17T15:27:56.222Z,19.19
2018-08-17T15:30:25.111Z,18.82
2018-08-17T15:32:54.000Z,19.62
2018-08-17T15:35:22.813Z,19.87
2018-08-17T15:37:51.676Z,19.41
2018-08-17T15:40:20.618Z,18.28
2018-08-17T15:42:51.480Z,18.95
2018-08-17T15:45:21.186Z,20.64
2018-08-17T15:47:49.954Z,20.65
2018-08-17T15:50:20.144Z,19.19
2018-08-17T15:52:48.889Z,19.31
2018-08-17T15:55:17.692Z,18.96
2018-08-17T15:57:46.575Z,18.80
2018-08-17T16:00:19.324Z,17.31
2018-08-17T16:02:48.229Z,19.82
2018-08-17T16:05:17.286Z,17.27
2018-08-17T16:07:46.199Z,20.64
2018-08-17T16:10:16.183Z,24.32
2018-08-17T16:12:45.683Z,23.65
2018-08-17T16:15:14.623Z,23.55
2018-08-17T16:17:43.704Z,23.48
2018-08-17T16:20:13.353Z,22.14
2018-08-17T16:22:42.973Z,23.56
2018-08-17T16:25:12.811Z,24.88
2018-08-17T16:27:42.619Z,26.62
2018-08-17T16:30:14.030Z,29.02
2018-08-17T16:32:43.057Z,31.15
2018-08-17T16:35:12.553Z,32.63
2018-08-17T16:37:45.492Z,29.22
2018-08-17T16:40:14.503Z,27.95
2018-08-17T16:42:43.411Z,26.69
2018-08-17T16:45:12.389Z,23.85
2018-08-17T16:47:41.447Z,23.60
2018-08-17T16:50:10.387Z,25.10
2018-08-17T16:52:39.262Z,24.17
2018-08-17T16:55:08.178Z,22.44
2018-08-17T16:57:37.334Z,22.45
2018-08-17T17:00:07.588Z,23.53
2018-08-17T17:02:36.490Z,24.62
2018-08-17T17:05:06.590Z,24.68
2018-08-17T17:07:35.415Z,25.60
2018-08-17T17:10:04.690Z,24.55
2018-08-17T17:12:33.479Z,26.86
2018-08-17T17:15:07.950Z,27.83
2018-08-17T17:17:36.689Z,27.75
2018-08-17T17:20:07.009Z,27.99
2018-08-17T17:22:35.859Z,28.93
2018-08-17T17:25:19.959Z,30.34
2018-08-17T17:27:49.898Z,30.84
2018-08-17T17:30:18.796Z,30.33
2018-08-17T17:32:47.512Z,30.01
2018-08-17T17:35:16.317Z,30.23
2018-08-17T17:37:45.190Z,32.16
2018-08-17T17:40:14.109Z,32.96
2018-08-17T17:42:42.967Z,33.26
2018-08-17T17:45:11.795Z,33.70
2018-08-17T17:47:40.592Z,34.89
2018-08-17T17:50:09.572Z,36.46
2018-08-17T17:52:38.307Z,37.51
2018-08-17T17:55:06.962Z,39.15
2018-08-17T17:57:35.788Z,39.81
2018-08-17T18:00:04.912Z,41.51
2018-08-17T18:02:33.842Z,42.39
2018-08-17T18:05:02.692Z,42.73
2018-08-17T18:07:39.627Z,44.07
2018-08-17T18:10:08.623Z,45.98
2018-08-17T18:12:37.480Z,46.36
2018-08-17T18:15:06.571Z,47.69
2018-08-17T18:17:35.484Z,48.70
2018-08-17T18:20:04.455Z,49.48
2018-08-17T18:22:33.468Z,50.68
2018-08-17T18:25:16.969Z,51.21
2018-08-17T18:27:46.110Z,52.86
2018-08-17T18:30:15.151Z,53.08
2018-08-17T18:32:44.063Z,54.47
2018-08-17T18:35:13.035Z,55.28
2018-08-17T18:37:41.943Z,56.31
2018-08-17T18:40:12.118Z,57.51
2018-08-17T18:42:40.966Z,58.20
2018-08-17T18:45:09.962Z,59.36
2018-08-17T18:47:38.756Z,59.94
2018-08-17T18:50:08.144Z,60.73
2018-08-17T18:52:37.117Z,61.83
2018-08-17T18:55:06.061Z,62.15
2018-08-17T18:57:34.894Z,63.01
2018-08-17T19:00:03.839Z,63.48
2018-08-17T19:02:32.816Z,63.90
2018-08-17T19:05:01.583Z,65.21
2018-08-17T19:07:30.442Z,65.62
2018-08-17T19:09:59.384Z,66.32
2018-08-17T19:12:28.190Z,66.87
2018-08-17T19:14:57.010Z,67.89
2018-08-17T19:17:34.103Z,68.33
2018-08-17T19:20:02.852Z,68.77
2018-08-17T19:22:47.268Z,69.18
2018-08-17T19:25:16.899Z,69.61
2018-08-17T19:27:45.758Z,70.09
2018-08-17T19:30:25.926Z,70.62
2018-08-17T19:32:56.304Z,71.30
2018-08-17T19:35:25.208Z,72.06
2018-08-17T19:37:54.238Z,72.59
2018-08-17T19:40:23.441Z,73.09
2018-08-17T19:42:52.301Z,73.60
2018-08-17T19:45:21.452Z,74.08
2018-08-17T19:47:50.584Z,74.40
2018-08-17T19:50:19.438Z,75.21
2018-08-17T19:52:48.308Z,75.41
2018-08-17T19:55:17.243Z,75.67
2018-08-17T19:57:46.062Z,76.02
2018-08-17T20:00:14.986Z,76.55
2018-08-17T20:02:43.914Z,76.99
2018-08-17T20:05:12.717Z,77.20
2018-08-17T20:07:41.697Z,77.62
2018-08-17T20:10:11.821Z,77.93
2018-08-17T20:12:41.022Z,78.44
2018-08-17T20:15:09.844Z,78.88
2018-08-17T20:17:39.064Z,78.89
2018-08-17T20:20:09.758Z,79.06
2018-08-17T20:22:38.709Z,78.92
2018-08-17T20:25:13.108Z,78.73
2018-08-17T20:27:42.012Z,79.17
2018-08-17T20:30:15.923Z,79.30
2018-08-17T20:32:45.180Z,79.05
2018-08-17T20:35:13.931Z,79.34
2018-08-17T20:37:46.924Z,79.08
2018-08-17T20:40:16.111Z,79.41
2018-08-17T20:42:45.290Z,79.87
2018-08-17T20:45:14.067Z,79.26
2018-08-17T20:47:43.528Z,79.53
2018-08-17T20:50:15.745Z,79.78
2018-08-17T20:52:51.595Z,79.83
2018-08-17T20:55:20.760Z,80.06
2018-08-17T20:57:52.524Z,80.11
2018-08-17T21:00:22.167Z,80.40
2018-08-17T21:02:51.090Z,80.76
2018-08-17T21:05:20.174Z,80.98
2018-08-17T21:07:49.780Z,81.33
2018-08-17T21:10:18.777Z,81.22
2018-08-17T21:12:48.145Z,81.43
2018-08-17T21:15:17.310Z,81.49
2018-08-17T21:17:46.288Z,81.61
2018-08-17T21:20:15.042Z,81.92
2018-08-17T21:22:44.023Z,82.30
2018-08-17T21:25:12.800Z,82.55
2018-08-17T21:27:41.606Z,82.51
2018-08-17T21:30:10.727Z,82.62
2018-08-17T21:32:39.581Z,82.97
2018-08-17T21:35:08.719Z,82.87
2018-08-17T21:37:37.980Z,82.97
2018-08-17T21:40:13.709Z,83.08
2018-08-17T21:42:42.732Z,83.57
2018-08-17T21:45:11.589Z,83.38
2018-08-17T21:47:40.538Z,83.67
2018-08-17T21:50:13.745Z,83.61
2018-08-17T21:52:43.477Z,84.01
2018-08-17T21:55:12.375Z,83.73
2018-08-17T21:57:41.334Z,83.35
2018-08-17T22:00:19.879Z,83.48
2018-08-17T22:02:48.965Z,83.22
2018-08-17T22:05:27.943Z,83.43
2018-08-17T22:07:56.690Z,82.42
2018-08-17T22:10:25.488Z,82.07
2018-08-17T22:12:54.407Z,81.59
2018-08-17T22:15:25.783Z,81.58
2018-08-17T22:17:54.741Z,81.84
2018-08-17T22:20:23.505Z,81.68
2018-08-17T22:22:52.350Z,81.38
2018-08-17T22:25:21.175Z,80.86
2018-08-17T22:27:50.354Z,80.24
2018-08-17T22:30:21.330Z,80.09
2018-08-17T22:32:50.218Z,79.92
2018-08-17T22:35:19.221Z,79.73
2018-08-17T22:37:47.938Z,79.57
2018-08-17T22:40:16.770Z,79.63
2018-08-17T22:42:47.832Z,79.86
2018-08-17T22:45:16.806Z,80.01
2018-08-17T22:47:45.876Z,80.17
2018-08-17T22:50:14.757Z,80.33
2018-08-17T22:52:43.534Z,80.43
2018-08-17T22:55:12.400Z,80.91
2018-08-17T22:57:41.197Z,81.26
2018-08-17T23:00:20.447Z,81.18
2018-08-17T23:02:50.490Z,81.50
2018-08-17T23:05:21.604Z,81.62
2018-08-17T23:07:50.474Z,82.21
2018-08-17T23:10:21.389Z,82.48
2018-08-17T23:12:51.136Z,83.00
2018-08-17T23:15:20.216Z,83.14
2018-08-17T23:17:56.232Z,82.95
2018-08-17T23:20:30.189Z,83.04
2018-08-17T23:23:00.279Z,83.42
2018-08-17T23:25:29.336Z,83.50
2018-08-17T23:27:58.251Z,83.97
2018-08-17T23:30:27.186Z,84.10
2018-08-17T23:32:55.957Z,83.99
2018-08-17T23:35:24.810Z,84.21
2018-08-17T23:37:53.603Z,84.55
2018-08-17T23:40:22.509Z,84.66
2018-08-17T23:42:51.383Z,84.73
2018-08-17T23:45:20.321Z,84.58
2018-08-17T23:47:49.014Z,85.04
2018-08-17T23:50:18.221Z,85.17
2018-08-17T23:52:47.142Z,85.10
2018-08-17T23:55:17.572Z,84.89
2018-08-17T23:57:46.358Z,85.18
